Terminal Aerodrome Forecast
Issued by NWS

Home | Current Version | Previous Version | Graphics & Text | Print | Product List | Glossary On
Versions: 1 2 3 4 5 6 7 8 9 10 11 12 13 14 15 16 17 18 19 20
000
FTUS43 KGRB 202051 AAB
TAFMTW
TAF AMD
KMTW 202051Z 2021/2118 23007KT 6SM BR SCT009 BKN015
      TEMPO 2021/2023 5SM -RA
     FM202300 27009KT P6SM OVC025
     FM210300 30011G17KT P6SM SCT030
     FM211200 31010KT P6SM SKC=

USA.gov is the U.S. government's official web portal to all federal, state and local government web resources and services.